ローマ・レオナルド・ダ・ビンチ国際空港の過去48時間の天気

ローマ・レオナルド・ダ・ビンチ国際空港 (Roma Fiumicino)

現在時刻: 9/28 10:34 CEST (9/28 08:34 UTC) 以下の時間は現地時間です。

過去48時間のMETAR気象情報
時間 風向 風速(m/s) 視程 気温(℃) 湿度(%) 気圧(hPa) 天気現象
28 09:50 3 9000m 13 94 1009 弱い雨
28 09:20 東北東 2 9000m 12 94 1009 弱い雨
28 08:50 北東 2 9000m 12 94 1009 弱い霧雨
28 08:20 不定 1 9000m 12 94 1008 強い雨 周辺でしゅう雨 しゅう雨
28 07:50 2 10km以上 12 94 1008 周辺でしゅう雨 しゅう雨
28 07:20 南南東 3 10km以上 12 94 1007 弱い雨
28 06:50 2 10km以上 11 100 1007
28 06:20 東南東 2 10km以上 11 100 1007
28 05:50 東南東 4 10km以上 11 100 1007 弱い雨
28 05:20 東北東 2 10km以上 11 100 1007 弱い雨
28 04:50 北北西 2 10km以上 10 100 1008
28 04:20 不定 1 10km以上 10 100 1007
28 03:50 東北東 2 10km以上 10 100 1007
28 03:20 東北東 2 10km以上 10 100 1007
28 02:50 東南東 3 10km以上 10 94 1007
28 02:20 北東 2 10km以上 11 94 1006
28 01:50 北北東 2 10km以上 12 88 1006
28 01:20 北北東 3 10km以上 11 94 1006
28 00:50 北北西 3 10km以上 12 88 1006
28 00:20 2 10km以上 13 82 1005
27 23:50 北西 4 10km以上 14 82 1004
27 23:20 北北西 3 10km以上 13 88 1003
27 22:50 北西 5 10km以上 13 88 1003
27 22:20 西北西 8 10km以上 15 77 1002
27 21:50 西北西 9 10km以上 15 82 1001
27 21:20 西北西 7 10km以上 15 94 1000 弱い雨
27 20:50 南東 4 10km以上 16 72 999 弱い雨
27 20:20 不定 1 10km以上 15 88 999 弱い雨
27 19:50 2 10km以上 16 82 998
27 19:20 南西 5 10km以上 17 77 997
27 18:50 西南西 7 10km以上 17 72 998
27 18:20 南西 9 10km以上 17 72 998 弱い雨
27 17:50 西南西 11 9000m 17 77 998 弱い雨
27 17:20 南西 7 10km以上 18 77 997 弱い雨
27 16:50 南東 4 10km以上 17 88 997 弱い雨
27 16:20 4 10km以上 16 94 998
27 15:50 6 10km以上 15 94 998
27 15:20 東北東 4 10km以上 14 94 999
27 14:50 東北東 7 10km以上 13 100 997
27 14:20 東北東 8 10km以上 13 94 999 弱い雨
27 13:50 8 8000m 13 94 1000 弱い雨
27 13:20 北東 9 5000m 12 94 1001 強い雨
27 12:50 北北東 7 5000m 12 94 1002 強い雨
27 12:20 北東 8 3000m 12 94 1003 強い雨
27 11:50 東北東 10 3000m 12 100 1003 強い雨
27 11:20 東北東 6 5000m 12 100 1004
27 10:50 北北東 3 4000m 12 94 1005 強い雨
27 10:20 北東 5 7000m 12 94 1004
27 09:50 2 7000m 12 94 1005
27 09:20 東北東 2 6000m 12 94 1005
27 08:50 5 8000m 12 100 1005 弱い雨
27 08:20 東北東 3 9000m 13 88 1005 弱い雨
27 07:50 1 7000m 13 88 1005
27 07:20 南東 3 7000m 13 88 1005
27 06:50 南東 3 8000m 13 88 1005
27 06:20 3 10km以上 12 88 1004
27 05:50 3 10km以上 12 88 1004
27 05:20 3 10km以上 12 88 1004
27 04:50 3 10km以上 12 82 1004
27 04:20 4 10km以上 12 82 1004
27 03:50 東北東 5 10km以上 12 88 1004
27 03:20 北北西 5 10km以上 13 82 1005
27 02:50 東北東 2 10km以上 11 94 1004
27 02:20 北東 3 10km以上 11 94 1004
27 01:50 東北東 2 10km以上 12 94 1004
27 01:20 3 10km以上 13 88 1004
27 00:50 東北東 3 10km以上 13 88 1003
27 00:20 東北東 4 10km以上 12 94 1003
26 23:50 北北東 4 10km以上 13 94 1003
26 23:20 北東 2 10km以上 13 88 1003 弱い雨
26 22:50 東南東 3 10km以上 13 88 1002
26 22:20 4 10km以上 13 82 1002
26 21:50 3 10km以上 13 77 1002
26 21:20 南東 4 10km以上 14 72 1002
26 20:50 南東 5 10km以上 14 67 1002
26 20:20 南東 4 10km以上 14 67 1002
26 19:50 南東 4 10km以上 13 77 1002
26 19:20 4 10km以上 14 77 1002
26 18:50 東南東 3 10km以上 14 77 1002 周辺でしゅう雨
26 18:20 南東 4 10km以上 14 72 1002 周辺でしゅう雨
26 17:50 南東 4 10km以上 15 67 1002
26 17:20 東南東 3 10km以上 14 77 1002
26 16:50 東南東 5 10km以上 14 77 1002
26 16:20 東南東 5 10km以上 14 72 1002
26 15:50 南南東 3 8000m 14 72 1002 弱い雨
26 15:20 南西 8 5000m 14 72 1002 雷雨
26 14:50 南西 8 8000m 16 59 1001 雨 雷
26 14:20 西南西 7 10km以上 17 52 1000 弱い雨 周辺で雷
26 13:50 西南西 2 10km以上 18 52 1001 周辺で雷
26 13:20 西 2 10km以上 18 52 1000
26 12:50 2 10km以上 18 64 1000
26 12:20 2 10km以上 18 68 1000
26 11:50 西北西 3 10km以上 17 63 1000
26 11:20 西 4 10km以上 17 63 999
26 10:50 不定 2 10km以上 16 63 999 弱い雷雨
LIRF 280750Z 08006KT 9000 -RA FEW025 SCT050 13/12 Q1009 TEMPO SHRA
LIRF 280720Z 06004KT 9000 -RA SCT050 12/11 Q1009 TEMPO SHRA
LIRF 280650Z 04003KT 320V070 9000 -DZ SCT050 12/11 Q1009 RERA TEMPO SHRA
LIRF 280620Z VRB02KT 9000 +RA VCSH FEW030 SCT050 12/11 Q1008 BCMG SHRA
LIRF 280550Z 09004KT 9999 VCSH SCT045 12/11 Q1008 BCMG SHRA
LIRF 280520Z 15006KT 130V190 9999 -RA FEW045 12/11 Q1007 TEMPO SHRA
LIRF 280450Z 10004KT 9999 FEW030 11/11 Q1007 TEMPO SHRA
LIRF 280420Z 11004KT CAVOK 11/11 Q1007 NOSIG
LIRF 280350Z 11007KT 9999 -RA FEW050 11/11 Q1007 NOSIG
LIRF 280320Z 06003KT 9999 -RA FEW050 11/11 Q1007 NOSIG
LIRF 280250Z 34004KT 9999 SCT045 10/10 Q1008 TEMPO SHRA
LIRF 280220Z VRB01KT CAVOK 10/10 Q1007 TEMPO SHRA
LIRF 280150Z 06003KT 040V100 CAVOK 10/10 Q1007 TEMPO SHRA
LIRF 280120Z 07003KT CAVOK 10/10 Q1007 TEMPO SHRA
LIRF 280050Z 12005KT CAVOK 10/09 Q1007 NOSIG
LIRF 280020Z 05003KT CAVOK 11/10 Q1006 NOSIG
LIRF 272350Z 03003KT 350V070 CAVOK 12/10 Q1006 NOSIG
LIRF 272320Z 02005KT CAVOK 11/10 Q1006 NOSIG
LIRF 272250Z 33005KT CAVOK 12/10 Q1006 NOSIG
LIRF 272220Z 01004KT 300V050 9999 FEW020 13/10 Q1005 NOSIG
LIRF 272150Z 32008KT 280V020 9999 FEW030 14/11 Q1004 NOSIG
LIRF 272120Z 33006KT 290V010 9999 SCT025 13/11 Q1003 NOSIG
LIRF 272050Z 32009KT 9999 SCT015 13/11 Q1003 NOSIG
LIRF 272020Z 29016KT 9999 SCT025 15/11 Q1002 NOSIG
LIRF 271950Z 29017KT 9999 SCT015 15/12 Q1001 NOSIG
LIRF 271920Z 29013KT 9999 -RA FEW010 SCT040 15/14 Q1000 NOSIG
LIRF 271850Z 13008KT 100V170 9999 -RA FEW020 SCT040 16/11 Q0999 NOSIG
LIRF 271820Z VRB02KT 9999 -RA FEW022 SCT055 15/13 Q0999 NOSIG
LIRF 271750Z 18003KT 130V260 9999 FEW020 16/13 Q0998 NOSIG
LIRF 271720Z 23009KT 9999 FEW020 17/13 Q0997 NOSIG
LIRF 271650Z 24014KT 9999 FEW020 SCT050 17/12 Q0998 NOSIG
LIRF 271620Z 22017KT 9999 -RA FEW020 SCT040 17/12 Q0998 NOSIG
LIRF 271550Z 24022KT 9000 -RA FEW020 SCT035 17/13 Q0998 NOSIG
LIRF 271520Z 22014G25KT 9999 -RA SCT020 BKN040 18/14 Q0997 NOSIG
LIRF 271450Z 13007KT 090V180 9999 -RA FEW020 SCT040 17/15 Q0997 NOSIG
LIRF 271420Z 10008KT 9999 FEW015 SCT035 16/15 Q0998 NOSIG
LIRF 271350Z 10011KT 9999 SCT010 SCT030 15/14 Q0998 NOSIG
LIRF 271320Z 06007KT 9999 SCT010 SCT040 14/13 Q0999 NOSIG
LIRF 271250Z 07014KT 9999 FEW020 SCT030 13/13 Q0997 NOSIG
LIRF 271220Z 07016KT 9999 -RA FEW025 SCT035 13/12 Q0999 NOSIG
LIRF 271150Z 09015KT 8000 -RA SCT020 SCT045 13/12 Q1000 RERA NOSIG
LIRF 271120Z 05017KT 5000 +RA FEW020 SCT030 BKN040 12/11 Q1001 NOSIG
LIRF 271050Z 03013KT 5000 +RA SCT030 BKN040 12/11 Q1002 NOSIG
LIRF 271020Z 04015KT 3000 +RA SCT030 BKN040 12/11 Q1003 NOSIG
LIRF 270950Z 06019KT 3000 +RA FEW020 SCT030 BKN040 12/12 Q1003 NOSIG
LIRF 270920Z 06011KT 5000 RA FEW020 SCT030 BKN040 12/12 Q1004 NOSIG
LIRF 270850Z 02005KT 350V060 4000 +RA SCT020 BKN030 12/11 Q1005 NOSIG
LIRF 270820Z 05010KT 7000 RA SCT030 BKN040 12/11 Q1004 NOSIG
LIRF 270750Z 01004KT 7000 RA SCT030 BKN040 12/11 Q1005 NOSIG
LIRF 270720Z 07004KT 6000 RA SCT030 BKN040 12/11 Q1005 NOSIG
LIRF 270650Z 09009KT 8000 -RA BKN042 12/12 Q1005 NOSIG
LIRF 270620Z 07005KT 9000 -RA BKN045 13/11 Q1005 RERA NOSIG
LIRF 270550Z 18002KT 7000 RA SCT030 BKN045 13/11 Q1005 TEMPO SHRA
LIRF 270520Z 14005KT 130V200 7000 RA SCT030 BKN045 13/11 Q1005 TEMPO SHRA
LIRF 270450Z 13005KT 8000 RA SCT045 13/11 Q1005 TEMPO SHRA
LIRF 270420Z 10005KT 9999 FEW050 12/10 Q1004 NOSIG
LIRF 270350Z 09006KT 9999 FEW050 12/10 Q1004 NOSIG
LIRF 270320Z 08005KT 9999 FEW050 12/10 Q1004 NOSIG
LIRF 270250Z 10006KT 070V140 9999 FEW045 12/09 Q1004 NOSIG
LIRF 270220Z 10007KT 9999 FEW045 12/09 Q1004 TEMPO RA
LIRF 270150Z 06010KT 9999 FEW045 12/10 Q1004 TEMPO RA
LIRF 270120Z 34009KT 9999 SCT040 13/10 Q1005 TEMPO RA
LIRF 270050Z 07004KT CAVOK 11/10 Q1004 TEMPO RA
LIRF 270020Z 05005KT CAVOK 11/10 Q1004 TEMPO 4000 TSRA
LIRF 262350Z 07004KT CAVOK 12/11 Q1004 NOSIG
LIRF 262320Z 09006KT CAVOK 13/11 Q1004 NOSIG
LIRF 262250Z 07006KT 9999 FEW050 13/11 Q1003 NOSIG
LIRF 262220Z 06008KT 9999 FEW045 12/11 Q1003 NOSIG
LIRF 262150Z 02007KT 9999 SCT040 13/12 Q1003 RERA TEMPO SHRA
LIRF 262120Z 04003KT 340V100 9999 -RA SCT040 13/11 Q1003 TEMPO SHRA
LIRF 262050Z 12006KT CAVOK 13/11 Q1002 TEMPO SHRA
LIRF 262020Z 10007KT CAVOK 13/10 Q1002 TEMPO SHRA
LIRF 261950Z 09005KT CAVOK 13/09 Q1002 NOSIG
LIRF 261920Z 13008KT CAVOK 14/09 Q1002 NOSIG
LIRF 261850Z 14009KT CAVOK 14/08 Q1002 NOSIG
LIRF 261820Z 14008KT CAVOK 14/08 Q1002 NOSIG
LIRF 261750Z 13007KT CAVOK 13/09 Q1002 NOSIG
LIRF 261720Z 10007KT CAVOK 14/10 Q1002 NOSIG
LIRF 261650Z 11005KT 080V150 9999 VCSH SCT040 14/10 Q1002 TEMPO SHRA
LIRF 261620Z 14007KT 9999 VCSH SCT040 14/09 Q1002 TEMPO SHRA
LIRF 261550Z 14008KT 9999 BKN040 15/09 Q1002 NOSIG
LIRF 261520Z 12005KT 9999 BKN040 14/10 Q1002 TEMPO SHRA
LIRF 261450Z 12009KT 9999 BKN035 14/10 Q1002 TEMPO SHRA
LIRF 261420Z 12010KT 9999 BKN035 14/09 Q1002 RMK WS R16L NOSIG
LIRF 261350Z 16005KT 100V270 8000 -RA SCT030 BKN040 14/09 Q1002 RETSRA NOSIG
LIRF 261320Z 23015KT 5000 TSRA SCT020CB BKN050 14/09 Q1002 NOSIG
LIRF 261250Z 23015KT 8000 RA TS SCT025CB 16/08 Q1001 NOSIG
LIRF 261220Z 24013KT 9999 -RA VCTS FEW020CB 17/07 Q1000 TEMPO TS
LIRF 261150Z 24003KT 220V280 9999 VCTS FEW020 18/08 Q1001 TEMPO TS
LIRF 261120Z 26003KT 220V300 9999 FEW015 18/08 Q1000 NOSIG
LIRF 261050Z 35004KT 9999 FEW015 18/11 Q1000 NOSIG
LIRF 261020Z 01004KT 9999 FEW015 18/12 Q1000 NOSIG
LIRF 260950Z 29005KT 9999 SCT050 17/10 Q1000 NOSIG
LIRF 260920Z 26007KT 9999 BKN050 17/10 Q0999 NOSIG
LIRF 260850Z VRB04KT 9999 -TSRA FEW030CB BKN050 16/09 Q0999 NOSIG